Time;durP1;ratioP1;P1;durP2;ratioP2;P2;SDS_P1;SDS_P2;PMS_P1;PMS_P2;Temp;Humidity;BMP_temperature;BMP_pressure;BME280_temperature;BME280_humidity;BME280_pressure;Samples;Min_cycle;Max_cycle;Signal;HPM_P1;HPM_P2
2022/09/16 00:02:55;;;;;;;6.37;4.60;;;;;;;17.49;57.47;97284.63;8317141;28;20244;-77
2022/09/16 00:06:58;;;;;;;7.13;4.17;;;;;;;17.51;57.08;97282.72;8317239;28;20541;-78
2022/09/16 00:11:02;;;;;;;6.70;4.27;;;;;;;17.45;57.33;97285.84;8316821;28;20248;-76
2022/09/16 00:15:08;;;;;;;7.00;4.03;;;;;;;17.46;57.55;97292.75;8316884;28;20228;-82
2022/09/16 00:19:13;;;;;;;7.40;3.90;;;;;;;17.39;57.71;97289.00;8316710;28;20222;-80
2022/09/16 00:23:15;;;;;;;6.43;3.83;;;;;;;17.42;57.05;97296.59;8316734;28;20229;-80
2022/09/16 00:27:19;;;;;;;7.23;3.70;;;;;;;17.40;57.02;97301.09;8316488;28;20233;-80
2022/09/16 00:31:22;;;;;;;7.17;3.80;;;;;;;17.43;57.66;97300.88;8316396;28;20722;-79
2022/09/16 00:35:25;;;;;;;5.77;3.77;;;;;;;17.41;57.66;97297.53;8316418;28;20228;-79
2022/09/16 00:39:28;;;;;;;6.00;3.60;;;;;;;17.33;57.51;97295.56;8316315;28;20228;-79
2022/09/16 00:48:04;;;;;;;6.30;4.40;;;;;;;17.23;57.69;97289.44;8490494;27;20326;-74
2022/09/16 00:52:07;;;;;;;5.83;4.10;;;;;;;17.26;58.10;97289.16;8476163;28;20234;-74
2022/09/16 00:56:12;;;;;;;6.30;4.40;;;;;;;17.34;58.25;97286.78;8476459;28;20417;-75
2022/09/16 01:00:16;;;;;;;5.00;3.90;;;;;;;17.32;58.37;97285.22;8476214;28;20552;-74
2022/09/16 01:04:25;;;;;;;8.47;4.23;;;;;;;17.24;58.59;97285.84;8476075;28;20233;-75
2022/09/16 01:08:27;;;;;;;7.93;4.00;;;;;;;17.30;58.30;97292.38;8442286;28;20226;-75
2022/09/16 01:12:31;;;;;;;7.23;3.80;;;;;;;17.37;57.89;97290.91;8442083;28;20234;-75
2022/09/16 01:16:39;;;;;;;4.53;3.77;;;;;;;17.27;58.43;97295.22;8441876;28;20246;-75
2022/09/16 01:21:07;;;;;;;5.23;3.73;;;;;;;17.32;57.84;97291.28;8441844;28;20505;-75
2022/09/16 01:25:21;;;;;;;5.53;4.10;;;;;;;17.31;58.09;97284.41;8441130;28;20241;-75
2022/09/16 01:29:39;;;;;;;4.63;3.47;;;;;;;17.19;57.92;97282.78;8441643;28;20230;-75
2022/09/16 01:33:49;;;;;;;8.40;3.53;;;;;;;17.23;57.50;97276.34;8441413;28;20229;-75
2022/09/16 01:38:01;;;;;;;6.33;3.37;;;;;;;17.28;57.99;97278.56;8440901;28;20510;-75
2022/09/16 01:42:15;;;;;;;6.53;3.47;;;;;;;17.24;58.02;97278.00;8441053;28;20234;-74
2022/09/16 01:46:21;;;;;;;4.53;3.53;;;;;;;17.26;57.74;97283.94;8440704;28;20254;-74
2022/09/16 01:50:32;;;;;;;7.00;3.43;;;;;;;17.24;58.24;97283.22;8441072;28;20423;-75
2022/09/16 01:54:39;;;;;;;7.90;3.60;;;;;;;17.20;57.91;97289.69;8440740;28;20238;-74
2022/09/16 01:58:45;;;;;;;5.67;2.90;;;;;;;17.15;58.41;97284.84;8421683;28;20297;-74
2022/09/16 02:02:51;;;;;;;6.23;3.27;;;;;;;17.11;58.38;97280.78;8417666;28;20234;-73
2022/09/16 02:06:56;;;;;;;12.87;3.30;;;;;;;17.16;58.92;97275.19;8417940;28;20302;-74
2022/09/16 02:11:00;;;;;;;7.77;2.97;;;;;;;17.14;58.38;97270.09;8417766;28;20257;-74
2022/09/16 02:15:06;;;;;;;4.57;3.10;;;;;;;17.11;58.11;97272.13;8417806;28;20242;-74
2022/09/16 02:19:12;;;;;;;9.27;3.00;;;;;;;17.10;58.37;97273.09;8417606;28;20227;-74
2022/09/16 02:23:20;;;;;;;5.67;3.00;;;;;;;17.02;58.19;97273.72;8417485;28;20242;-74
2022/09/16 02:27:23;;;;;;;5.57;2.97;;;;;;;17.00;58.49;97279.06;8417203;28;20235;-74
2022/09/16 02:31:30;;;;;;;7.47;3.10;;;;;;;17.03;58.73;97277.16;8417167;28;20231;-74
2022/09/16 02:35:35;;;;;;;5.43;3.10;;;;;;;16.97;58.54;97281.91;8417643;28;20294;-74
2022/09/16 02:39:43;;;;;;;8.27;3.20;;;;;;;17.08;58.64;97277.63;8417186;28;20296;-74
2022/09/16 02:43:46;;;;;;;6.20;2.90;;;;;;;17.04;59.15;97278.78;8417040;28;20254;-74
2022/09/16 02:47:54;;;;;;;5.17;3.13;;;;;;;17.10;58.40;97279.13;8416257;28;20231;-74
2022/09/16 02:51:59;;;;;;;6.93;3.23;;;;;;;17.05;58.85;97283.09;8416445;28;20235;-74
2022/09/16 02:56:07;;;;;;;4.87;3.10;;;;;;;17.07;58.79;97274.16;8416677;28;20234;-74
2022/09/16 03:00:11;;;;;;;5.10;3.00;;;;;;;17.05;58.48;97270.84;8416407;28;20226;-74
2022/09/16 03:04:15;;;;;;;8.47;3.17;;;;;;;16.99;58.79;97268.72;8416191;28;20250;-74
2022/09/16 03:08:18;;;;;;;6.93;3.63;;;;;;;17.00;58.54;97267.75;8415023;28;20524;-74
2022/09/16 03:12:32;;;;;;;4.27;3.10;;;;;;;17.04;58.43;97274.41;8416087;28;20226;-74
2022/09/16 03:16:37;;;;;;;7.07;3.57;;;;;;;17.00;58.36;97267.75;8415954;28;20234;-74
2022/09/16 03:20:50;;;;;;;6.87;3.50;;;;;;;16.92;58.68;97265.75;8415798;28;20568;-75
2022/09/16 03:24:59;;;;;;;6.03;3.07;;;;;;;16.91;58.15;97271.13;8415191;28;20231;-74
2022/09/16 03:29:10;;;;;;;7.63;3.17;;;;;;;16.96;58.53;97268.97;8415188;28;20231;-74
2022/09/16 03:33:19;;;;;;;4.33;2.73;;;;;;;16.93;58.75;97274.47;8415091;28;20230;-74
2022/09/16 03:37:23;;;;;;;7.67;3.37;;;;;;;16.87;59.34;97267.09;8415246;28;20249;-74
2022/09/16 03:41:28;;;;;;;4.67;3.07;;;;;;;16.95;58.93;97264.69;8415173;28;20304;-74
2022/09/16 03:45:32;;;;;;;5.33;3.07;;;;;;;16.90;59.52;97267.66;8414818;28;20242;-75
2022/09/16 03:49:34;;;;;;;7.47;3.07;;;;;;;16.89;59.25;97265.22;8414757;28;20235;-75
2022/09/16 03:53:37;;;;;;;5.77;3.37;;;;;;;16.85;59.48;97258.53;8414833;28;20285;-74
2022/09/16 03:57:40;;;;;;;6.47;3.50;;;;;;;16.92;58.96;97259.72;8414725;28;20235;-75
2022/09/16 04:01:44;;;;;;;5.37;3.53;;;;;;;16.87;59.43;97256.63;8414312;28;20226;-75
2022/09/16 04:05:52;;;;;;;8.93;3.83;;;;;;;16.90;59.63;97259.81;8380764;28;20231;-75
2022/09/16 04:09:55;;;;;;;7.50;3.40;;;;;;;16.84;59.67;97262.94;8406744;28;20518;-74
2022/09/16 04:13:58;;;;;;;7.23;3.60;;;;;;;16.78;59.42;97256.41;8414030;28;20526;-74
2022/09/16 04:18:02;;;;;;;6.33;3.73;;;;;;;16.81;59.59;97250.94;8414095;28;20288;-74
2022/09/16 04:22:05;;;;;;;5.13;3.70;;;;;;;16.64;60.04;97250.63;8413545;28;20235;-75
2022/09/16 04:26:08;;;;;;;8.03;3.60;;;;;;;16.70;59.31;97239.69;8413950;28;20249;-75
2022/09/16 04:30:12;;;;;;;11.47;3.73;;;;;;;16.76;59.55;97226.94;8413629;28;20329;-74
2022/09/16 04:34:16;;;;;;;6.87;3.33;;;;;;;16.79;59.62;97241.53;8413846;28;20235;-75
2022/09/16 04:38:19;;;;;;;7.03;3.97;;;;;;;16.79;59.52;97249.38;8413520;28;20226;-75
2022/09/16 04:42:22;;;;;;;5.63;3.30;;;;;;;16.66;59.95;97236.50;8413580;28;20272;-75
2022/09/16 04:46:26;;;;;;;7.60;3.30;;;;;;;16.73;59.49;97221.13;8413182;28;20235;-74
2022/09/16 04:50:30;;;;;;;6.97;3.37;;;;;;;16.75;59.28;97235.75;8413668;28;20234;-75
2022/09/16 04:54:33;;;;;;;11.50;3.40;;;;;;;16.68;59.38;97244.19;8413591;28;20234;-74
2022/09/16 04:58:37;;;;;;;5.60;2.80;;;;;;;16.76;59.43;97228.72;8413479;28;20230;-74
2022/09/16 05:02:39;;;;;;;8.07;3.17;;;;;;;16.74;59.26;97248.94;8413366;28;20230;-75
2022/09/16 05:06:44;;;;;;;7.27;3.07;;;;;;;16.68;59.00;97249.41;8413005;28;20249;-75
2022/09/16 05:10:47;;;;;;;9.10;3.87;;;;;;;16.45;59.37;97251.25;8413077;28;20276;-75
2022/09/16 05:14:49;;;;;;;6.43;3.20;;;;;;;16.63;59.43;97252.41;8379233;28;20227;-74
2022/09/16 05:18:54;;;;;;;7.03;3.20;;;;;;;16.72;59.09;97256.91;8379259;28;20550;-75
2022/09/16 05:22:59;;;;;;;4.97;3.17;;;;;;;16.63;59.10;97265.47;8389189;28;20231;-74
2022/09/16 05:27:02;;;;;;;5.97;2.90;;;;;;;16.63;58.70;97257.63;8413012;28;20230;-75
2022/09/16 05:31:09;;;;;;;6.97;2.73;;;;;;;16.64;58.58;97261.06;8413001;28;20241;-74
2022/09/16 05:35:12;;;;;;;10.93;3.10;;;;;;;16.70;58.29;97271.88;8419210;28;20235;-75
2022/09/16 05:39:17;;;;;;;5.90;2.77;;;;;;;16.54;58.92;97267.03;8419186;28;20234;-75
2022/09/16 05:43:25;;;;;;;5.43;2.63;;;;;;;16.72;58.73;97272.59;8418678;28;20280;-76
2022/09/16 05:47:28;;;;;;;6.80;2.67;;;;;;;16.72;58.86;97279.59;8418546;28;20238;-75
2022/09/16 05:51:31;;;;;;;7.30;2.70;;;;;;;16.52;58.43;97278.56;8418379;28;20242;-76
2022/09/16 05:55:35;;;;;;;9.57;2.60;;;;;;;16.67;58.82;97282.56;8418415;28;20237;-76
2022/09/16 05:59:38;;;;;;;6.40;3.00;;;;;;;16.51;58.56;97285.59;8418308;28;20525;-73
2022/09/16 06:03:43;;;;;;;6.20;2.97;;;;;;;16.68;58.39;97280.78;8418052;28;20230;-76
2022/09/16 06:07:45;;;;;;;8.63;2.87;;;;;;;16.69;58.23;97290.31;8417886;28;20261;-74
2022/09/16 06:11:51;;;;;;;11.20;2.90;;;;;;;16.65;58.26;97287.09;8417559;28;20526;-73
2022/09/16 06:16:03;;;;;;;6.27;2.50;;;;;;;16.74;58.22;97273.28;8417685;28;20234;-75
2022/09/16 06:20:12;;;;;;;5.57;2.57;;;;;;;16.75;57.82;97269.75;8418058;28;20231;-75
2022/09/16 06:24:17;;;;;;;5.83;2.43;;;;;;;16.78;57.91;97274.69;8417582;28;20230;-76
2022/09/16 06:28:21;;;;;;;5.60;2.40;;;;;;;16.74;57.68;97273.28;8416814;28;20241;-76
2022/09/16 06:32:24;;;;;;;8.90;2.77;;;;;;;16.68;57.03;97280.78;8417076;28;20238;-75
2022/09/16 06:36:29;;;;;;;6.50;2.60;;;;;;;16.68;57.46;97278.16;8416925;28;20529;-75
2022/09/16 06:40:32;;;;;;;4.60;2.10;;;;;;;16.71;57.97;97273.53;8417111;28;20246;-75
2022/09/16 06:44:36;;;;;;;8.03;2.40;;;;;;;16.75;62.47;97281.97;8416675;28;20246;-75
2022/09/16 06:48:41;;;;;;;11.70;2.83;;;;;;;16.68;57.52;97286.00;8416685;28;20261;-75
2022/09/16 06:52:43;;;;;;;7.70;2.33;;;;;;;16.73;57.54;97281.25;8416785;28;20231;-75
2022/09/16 06:56:46;;;;;;;4.60;2.20;;;;;;;16.70;57.61;97287.56;8416464;28;20234;-75
2022/09/16 07:00:51;;;;;;;6.00;2.17;;;;;;;16.72;57.38;97287.44;8407959;28;20288;-75
2022/09/16 07:04:54;;;;;;;8.27;2.53;;;;;;;16.75;57.04;97284.56;8415696;28;20238;-76
2022/09/16 07:08:57;;;;;;;6.47;2.07;;;;;;;16.96;56.53;97275.03;8415965;28;20533;-75
2022/09/16 07:12:59;;;;;;;5.60;1.97;;;;;;;16.80;56.37;97275.41;8415905;28;20261;-77
2022/09/16 07:17:04;;;;;;;8.00;2.30;;;;;;;17.02;55.86;97273.72;8415830;28;20288;-76
2022/09/16 07:21:08;;;;;;;4.83;1.80;;;;;;;16.94;56.51;97278.72;8415697;28;20235;-75
2022/09/16 07:25:11;;;;;;;9.13;2.37;;;;;;;16.90;55.74;97272.91;8415624;28;20234;-75
2022/09/16 07:29:15;;;;;;;6.73;2.33;;;;;;;17.16;55.47;97283.03;8415077;28;20241;-75
2022/09/16 07:33:20;;;;;;;4.80;1.83;;;;;;;17.10;55.75;97268.69;8415413;28;20242;-75
2022/09/16 07:37:22;;;;;;;10.63;2.17;;;;;;;17.06;55.21;97267.28;8415206;28;20235;-76
2022/09/16 07:41:26;;;;;;;3.73;1.87;;;;;;;17.07;55.48;97274.16;8414728;28;20233;-74
2022/09/16 07:45:29;;;;;;;4.80;1.80;;;;;;;17.07;55.43;97268.91;8414796;28;20238;-75
2022/09/16 07:49:33;;;;;;;6.33;1.97;;;;;;;17.22;54.30;97277.28;8414636;28;20298;-75
2022/09/16 07:53:37;;;;;;;4.20;1.63;;;;;;;17.18;53.92;97289.81;8414363;28;20636;-75
2022/09/16 07:57:39;;;;;;;10.73;2.10;;;;;;;17.37;53.86;97280.44;8414424;28;20235;-74
2022/09/16 08:01:42;;;;;;;4.90;1.70;;;;;;;17.29;53.71;97288.09;8414085;28;20243;-75
2022/09/16 08:05:46;;;;;;;6.33;2.37;;;;;;;17.35;53.39;97285.78;8414110;28;20569;-75
2022/09/16 08:09:49;;;;;;;4.70;1.93;;;;;;;17.49;53.01;97275.97;8413328;28;20231;-75
2022/09/16 08:13:53;;;;;;;4.47;1.97;;;;;;;17.37;52.39;97286.50;8413831;28;20230;-75
2022/09/16 08:17:56;;;;;;;3.80;1.73;;;;;;;17.16;52.88;97288.28;8413726;28;20238;-72
2022/09/16 08:22:00;;;;;;;6.00;1.80;;;;;;;17.31;52.96;97297.47;8413678;28;20230;-76
2022/09/16 08:26:04;;;;;;;4.80;2.03;;;;;;;17.44;52.00;97292.06;8413335;28;20235;-75
2022/09/16 08:30:08;;;;;;;7.47;2.20;;;;;;;17.51;52.74;97298.44;8413626;28;20247;-76
2022/09/16 08:34:11;;;;;;;5.27;1.80;;;;;;;17.67;51.32;97303.22;8413523;28;20223;-76
2022/09/16 08:38:15;;;;;;;7.67;2.00;;;;;;;17.82;51.79;97300.25;8413660;28;20247;-76
2022/09/16 08:42:30;;;;;;;4.27;1.53;;;;;;;17.90;51.04;97296.09;8413415;28;20238;-76
2022/09/16 08:46:36;;;;;;;5.93;2.23;;;;;;;17.59;51.23;97296.03;8413496;28;20549;-76
2022/09/16 08:50:41;;;;;;;4.10;1.60;;;;;;;17.70;51.41;97296.91;8413203;28;20230;-76
2022/09/16 08:54:51;;;;;;;5.47;2.00;;;;;;;17.88;51.42;97303.25;8413330;28;20232;-76
2022/09/16 08:58:55;;;;;;;9.63;2.30;;;;;;;17.94;51.72;97300.09;8397188;28;20231;-76
2022/09/16 09:03:02;;;;;;;5.10;1.73;;;;;;;18.04;50.85;97292.28;8413417;28;20227;-76
2022/09/16 09:07:11;;;;;;;5.83;2.00;;;;;;;18.17;50.26;97292.88;8416434;28;20572;-76
2022/09/16 09:11:22;;;;;;;6.47;2.10;;;;;;;18.42;50.08;97292.56;8420484;28;20435;-75
2022/09/16 09:15:36;;;;;;;10.27;2.00;;;;;;;18.42;49.22;97295.19;8420356;28;20260;-76
2022/09/16 09:19:53;;;;;;;5.10;2.00;;;;;;;18.59;48.37;97289.28;8419727;28;20234;-76
2022/09/16 09:24:16;;;;;;;7.00;3.00;;;;;;;19.48;47.72;97288.41;8419380;28;20509;-78
2022/09/16 09:28:33;;;;;;;7.70;3.00;;;;;;;20.01;46.20;97281.78;8419679;28;20300;-77
2022/09/16 09:32:46;;;;;;;8.30;2.00;;;;;;;19.92;45.41;97276.44;8419345;28;20233;-78
2022/09/16 09:37:04;;;;;;;5.30;1.70;;;;;;;19.65;45.44;97271.91;8419282;28;20318;-74
2022/09/16 09:41:10;;;;;;;6.93;1.80;;;;;;;19.51;46.10;97280.22;8419279;28;20528;-77
2022/09/16 09:45:19;;;;;;;6.97;2.10;;;;;;;19.89;43.50;97281.97;8419415;28;20237;-77
2022/09/16 09:49:27;;;;;;;4.30;1.80;;;;;;;19.52;43.84;97279.28;8419759;28;20237;-77
2022/09/16 09:53:33;;;;;;;5.37;1.80;;;;;;;19.67;43.44;97280.47;8419389;28;20520;-77
2022/09/16 09:57:40;;;;;;;6.60;2.33;;;;;;;19.56;43.54;97293.78;8419180;28;20239;-77
2022/09/16 10:01:44;;;;;;;3.57;1.70;;;;;;;19.45;44.05;97292.13;8419144;28;20535;-77
2022/09/16 10:05:48;;;;;;;6.80;1.83;;;;;;;19.13;42.76;97276.66;8418504;28;20237;-75
2022/09/16 10:09:55;;;;;;;5.20;1.50;;;;;;;19.28;42.39;97285.78;8418149;28;20236;-77
2022/09/16 10:13:59;;;;;;;5.10;1.60;;;;;;;19.37;42.73;97288.56;8418123;28;20241;-77
2022/09/16 10:18:11;;;;;;;7.73;1.70;;;;;;;19.52;43.60;97277.47;8418469;28;20435;-77
2022/09/16 10:22:22;;;;;;;5.13;1.70;;;;;;;19.26;43.87;97279.03;8418878;28;20233;-77
2022/09/16 10:26:25;;;;;;;3.53;1.47;;;;;;;19.37;43.52;97278.06;8418509;28;20285;-75
2022/09/16 10:30:31;;;;;;;3.73;1.77;;;;;;;19.05;44.23;97276.53;8418560;28;20233;-78
2022/09/16 10:34:38;;;;;;;5.20;2.00;;;;;;;19.11;45.36;97260.22;8418532;28;20232;-75
2022/09/16 10:38:42;;;;;;;6.70;2.43;;;;;;;18.76;45.22;97264.22;8418362;28;20237;-75
2022/09/16 10:42:47;;;;;;;5.50;1.60;;;;;;;18.83;45.76;97267.97;8418149;28;20238;-77
2022/09/16 10:46:51;;;;;;;5.20;2.00;;;;;;;18.78;45.37;97262.28;8417895;28;20242;-75
2022/09/16 10:50:57;;;;;;;6.90;1.90;;;;;;;18.71;45.23;97261.97;8418102;28;20303;-76
2022/09/16 10:55:12;;;;;;;4.83;1.90;;;;;;;18.60;45.61;97266.50;8417093;28;20230;-74
2022/09/16 10:59:15;;;;;;;7.70;2.00;;;;;;;18.66;45.02;97268.63;8416723;28;20412;-76
2022/09/16 11:03:52;;;;;;;4.80;1.97;;;;;;;18.62;44.67;97267.22;8416414;28;20226;-75
2022/09/16 11:08:02;;;;;;;6.27;1.77;;;;;;;18.40;45.02;97260.41;8415576;28;20234;-75
2022/09/16 11:12:22;;;;;;;7.23;2.00;;;;;;;18.52;45.53;97264.56;8416597;28;20558;-74
2022/09/16 11:16:36;;;;;;;6.00;1.80;;;;;;;18.53;45.92;97272.31;8416081;28;20239;-76
2022/09/16 11:20:55;;;;;;;4.93;1.70;;;;;;;18.32;47.28;97266.34;8417262;28;20232;-74
2022/09/16 11:25:16;;;;;;;5.30;1.90;;;;;;;18.18;47.16;97275.38;8383007;28;20220;-71
2022/09/16 11:29:39;;;;;;;7.07;2.50;;;;;;;18.31;52.42;97272.53;8381390;28;20245;-75
2022/09/16 11:33:47;;;;;;;5.27;1.90;;;;;;;18.07;48.25;97260.59;8398301;28;20249;-75
2022/09/16 11:37:54;;;;;;;6.90;1.57;;;;;;;18.00;47.87;97261.25;8398383;28;20226;-77
2022/09/16 11:42:03;;;;;;;5.67;1.73;;;;;;;18.17;48.73;97260.63;8414528;28;20230;-76
2022/09/16 11:46:12;;;;;;;7.83;2.20;;;;;;;18.40;49.03;97248.13;8414707;28;20534;-76
2022/09/16 11:50:26;;;;;;;8.47;2.23;;;;;;;18.21;46.84;97250.72;8414555;28;20396;-77
2022/09/16 11:54:57;;;;;;;7.67;1.97;;;;;;;18.35;46.54;97263.41;8414546;28;20341;-77
2022/09/16 11:59:05;;;;;;;6.43;2.03;;;;;;;18.11;46.53;97248.88;8412640;28;20234;-78
2022/09/16 12:03:11;;;;;;;6.67;1.90;;;;;;;18.27;47.00;97237.88;8414350;28;20231;-78
2022/09/16 12:07:18;;;;;;;7.70;2.67;;;;;;;18.81;48.67;97240.22;8414189;28;20236;-79
2022/09/16 12:11:25;;;;;;;7.23;2.30;;;;;;;18.75;45.16;97233.69;8414160;28;20295;-77
2022/09/16 12:15:34;;;;;;;4.47;2.10;;;;;;;19.31;44.67;97221.69;8414237;28;20443;-78
2022/09/16 12:19:46;;;;;;;7.17;2.13;;;;;;;19.04;45.00;97230.25;8414473;28;20254;-78
2022/09/16 12:23:56;;;;;;;5.53;1.80;;;;;;;18.91;45.81;97226.13;8413778;28;20232;-78
2022/09/16 12:28:04;;;;;;;6.30;1.80;;;;;;;18.61;45.08;97226.22;8413962;28;20228;-78
2022/09/16 12:32:11;;;;;;;4.43;1.80;;;;;;;19.37;45.14;97215.03;8414006;28;23297;-79
2022/09/16 12:36:16;;;;;;;6.17;2.00;;;;;;;19.43;44.05;97211.84;8413886;28;20305;-78
2022/09/16 12:40:26;;;;;;;4.97;2.00;;;;;;;18.97;46.01;97214.25;8413761;28;20239;-79
2022/09/16 12:45:02;;;;;;;8.13;2.13;;;;;;;18.77;48.49;97221.25;8413263;28;20334;-79
2022/09/16 12:49:29;;;;;;;5.03;2.00;;;;;;;18.40;49.21;97205.38;8365462;28;20526;-78
2022/09/16 12:53:48;;;;;;;4.50;1.90;;;;;;;18.56;49.60;97205.66;8380203;28;20236;-78
2022/09/16 12:58:09;;;;;;;6.83;1.87;;;;;;;18.36;51.69;97202.19;8379938;28;20235;-78
2022/09/16 13:02:16;;;;;;;10.23;2.20;;;;;;;18.29;53.96;97194.03;8380133;28;20518;-78
2022/09/16 13:06:24;;;;;;;8.07;2.30;;;;;;;18.24;55.46;97195.38;8392922;28;20577;-78
2022/09/16 13:10:31;;;;;;;7.33;2.23;;;;;;;18.26;55.70;97189.06;8413525;28;20242;-78
2022/09/16 13:14:56;;;;;;;4.33;1.80;;;;;;;18.23;56.00;97199.81;8379471;28;20303;-78
2022/09/16 13:19:24;;;;;;;8.17;2.60;;;;;;;17.99;55.29;97184.44;8390032;28;20238;-77
2022/09/16 13:23:32;;;;;;;6.03;2.30;;;;;;;18.01;55.57;97200.03;8410995;28;20226;-78
2022/09/16 13:27:36;;;;;;;6.97;2.07;;;;;;;17.72;54.29;97190.25;8413146;28;20264;-77
2022/09/16 13:31:46;;;;;;;7.57;2.17;;;;;;;17.84;54.10;97199.72;8412821;28;20235;-77
2022/09/16 13:36:01;;;;;;;5.97;2.27;;;;;;;17.81;53.89;97193.88;8379317;28;20231;-77
2022/09/16 13:40:18;;;;;;;5.90;1.90;;;;;;;17.87;52.93;97194.19;8390410;28;20235;-78
2022/09/16 13:44:40;;;;;;;7.93;2.33;;;;;;;17.89;53.97;97194.06;8412892;28;20445;-78
2022/09/16 13:48:45;;;;;;;10.27;4.43;;;;;;;18.85;51.90;97192.59;8412589;28;20231;-78
2022/09/16 13:52:49;;;;;;;10.23;2.77;;;;;;;19.69;50.34;97180.53;8413718;28;20227;-78
2022/09/16 13:57:06;;;;;;;4.97;2.30;;;;;;;20.14;47.88;97177.16;8418853;28;20227;-78
2022/09/16 14:01:20;;;;;;;6.67;2.13;;;;;;;20.41;47.87;97175.47;8418490;28;20235;-80
2022/09/16 14:05:49;;;;;;;8.07;2.00;;;;;;;20.76;46.57;97172.06;8418214;28;20230;-77
2022/09/16 14:09:59;;;;;;;6.70;2.60;;;;;;;20.67;46.87;97167.69;8401699;28;20250;-77
2022/09/16 14:14:05;;;;;;;10.10;2.40;;;;;;;20.99;44.16;97169.75;8418383;28;20301;-77
2022/09/16 14:18:13;;;;;;;6.33;2.33;;;;;;;20.90;43.75;97168.03;8418051;28;20236;-77
2022/09/16 14:22:18;;;;;;;8.13;1.93;;;;;;;20.99;43.45;97167.13;8417952;28;20532;-76
2022/09/16 14:26:22;;;;;;;5.70;2.17;;;;;;;21.08;43.46;97165.41;8417783;28;20230;-77
2022/09/16 14:30:28;;;;;;;6.00;2.40;;;;;;;21.46;42.87;97164.19;8417777;28;20260;-77
2022/09/16 14:34:34;;;;;;;6.37;2.33;;;;;;;21.53;42.32;97161.75;8417257;28;20280;-78
2022/09/16 14:38:40;;;;;;;5.77;1.83;;;;;;;21.00;42.97;97160.06;8417408;28;20226;-76
2022/09/16 14:42:50;;;;;;;4.77;1.90;;;;;;;20.93;42.47;97161.66;8416697;28;20234;-76
2022/09/16 14:46:57;;;;;;;7.70;1.87;;;;;;;20.99;42.35;97166.31;8417012;28;20238;-76
2022/09/16 14:51:16;;;;;;;4.83;2.10;;;;;;;21.22;41.06;97164.00;8417012;28;20419;-76
2022/09/16 14:55:21;;;;;;;4.50;1.60;;;;;;;21.19;40.95;97159.03;8417047;28;20280;-77
2022/09/16 14:59:26;;;;;;;5.70;1.83;;;;;;;20.54;39.93;97161.94;8416721;28;20234;-77
2022/09/16 15:03:37;;;;;;;5.93;1.30;;;;;;;20.28;39.01;97162.69;8416546;28;20253;-77
2022/09/16 15:07:41;;;;;;;3.73;1.60;;;;;;;20.00;40.13;97162.72;8416401;28;20244;-76
2022/09/16 15:12:04;;;;;;;3.77;1.30;;;;;;;19.64;40.43;97159.94;8415906;28;20303;-76
2022/09/16 15:16:10;;;;;;;4.97;1.40;;;;;;;20.27;39.74;97159.22;8416181;28;21531;-76
2022/09/16 15:20:25;;;;;;;3.80;1.23;;;;;;;20.11;40.85;97154.63;8415850;28;20239;-76
2022/09/16 15:24:30;;;;;;;5.70;1.70;;;;;;;19.43;41.10;97154.91;8415648;28;20249;-77
2022/09/16 15:28:33;;;;;;;3.90;1.23;;;;;;;19.17;43.03;97157.31;8415637;28;20425;-77
2022/09/16 15:32:44;;;;;;;3.47;1.10;;;;;;;18.94;42.80;97164.69;8415196;28;20229;-77
2022/09/16 15:36:49;;;;;;;3.43;1.40;;;;;;;18.89;43.65;97166.91;8415238;28;20237;-77
2022/09/16 15:41:01;;;;;;;6.67;1.50;;;;;;;18.81;43.86;97170.25;8414729;28;20367;-77
2022/09/16 15:45:15;;;;;;;5.87;1.60;;;;;;;18.88;44.70;97170.50;8414628;28;20248;-77
2022/09/16 15:49:19;;;;;;;3.60;1.30;;;;;;;18.88;44.01;97181.00;8414492;28;20251;-76
2022/09/16 15:53:36;;;;;;;5.53;1.80;;;;;;;18.92;44.15;97175.34;8414523;28;20230;-77
2022/09/16 15:57:40;;;;;;;4.30;1.27;;;;;;;18.47;44.91;97181.09;8414495;28;20303;-77
2022/09/16 16:01:46;;;;;;;3.57;1.10;;;;;;;18.36;45.07;97175.97;8414294;28;20423;-77
2022/09/16 16:05:55;;;;;;;4.27;1.20;;;;;;;18.04;47.07;97179.63;8413679;28;20236;-76
2022/09/16 16:10:12;;;;;;;3.73;1.20;;;;;;;18.28;49.33;97202.03;8414059;28;20239;-79
2022/09/16 16:14:15;;;;;;;3.70;1.30;;;;;;;17.99;48.60;97197.53;8414068;28;20251;-77
2022/09/16 16:18:18;;;;;;;2.83;0.90;;;;;;;17.79;48.90;97194.81;8413353;28;20241;-76
2022/09/16 16:22:21;;;;;;;2.70;1.10;;;;;;;17.91;49.52;97189.50;8413722;28;20536;-77
2022/09/16 16:26:25;;;;;;;2.20;1.10;;;;;;;17.91;48.94;97198.19;8413824;28;20238;-77
2022/09/16 16:30:28;;;;;;;5.00;1.20;;;;;;;17.87;50.21;97199.44;8413744;28;20250;-77
2022/09/16 16:34:32;;;;;;;2.17;0.90;;;;;;;17.77;49.99;97199.38;8413537;28;20235;-78
2022/09/16 16:38:35;;;;;;;2.13;0.90;;;;;;;17.68;49.87;97209.78;8413061;28;20235;-78
2022/09/16 16:42:41;;;;;;;4.67;1.03;;;;;;;17.87;50.53;97201.22;8413421;28;20250;-76
2022/09/16 16:46:44;;;;;;;3.63;1.20;;;;;;;17.88;49.67;97208.97;8413165;28;20251;-77
2022/09/16 16:50:56;;;;;;;4.07;1.00;;;;;;;17.70;49.96;97208.69;8412953;28;20249;-76
2022/09/16 16:54:59;;;;;;;2.43;1.30;;;;;;;17.68;49.79;97213.22;8413033;28;20234;-78
2022/09/16 16:59:03;;;;;;;1.80;0.97;;;;;;;17.78;50.06;97215.91;8413590;28;20235;-77
2022/09/16 17:03:06;;;;;;;6.90;1.40;;;;;;;17.78;50.20;97221.13;8413407;28;20417;-77
2022/09/16 17:07:09;;;;;;;3.70;1.10;;;;;;;17.65;50.08;97220.53;8412987;28;20233;-77
2022/09/16 17:11:30;;;;;;;1.90;0.90;;;;;;;17.55;50.21;97226.56;8413159;28;20234;-77
2022/09/16 17:15:34;;;;;;;2.37;1.00;;;;;;;17.49;50.80;97231.47;8413161;28;20234;-77
2022/09/16 17:19:37;;;;;;;3.80;1.90;;;;;;;17.26;50.57;97234.22;8412941;28;20231;-77
2022/09/16 17:23:40;;;;;;;5.20;1.70;;;;;;;17.10;50.72;97241.69;8412835;28;20299;-77
2022/09/16 17:27:43;;;;;;;4.17;1.43;;;;;;;17.15;51.15;97242.13;8414327;28;20234;-75
2022/09/16 17:31:47;;;;;;;5.77;2.63;;;;;;;17.21;50.80;97239.03;8419017;28;20242;-78
2022/09/16 17:35:59;;;;;;;2.97;1.70;;;;;;;17.10;51.14;97244.31;8418610;28;20548;-75
2022/09/16 17:40:03;;;;;;;4.17;2.10;;;;;;;17.11;51.11;97253.81;8418861;28;20227;-77
2022/09/16 17:44:07;;;;;;;4.30;2.10;;;;;;;17.03;51.75;97248.38;8417985;28;20298;-81
2022/09/16 17:48:11;;;;;;;2.87;1.50;;;;;;;16.93;51.85;97254.34;8418556;28;20450;-77
2022/09/16 17:52:14;;;;;;;3.73;1.23;;;;;;;16.91;51.43;97247.59;8418567;28;20553;-79
2022/09/16 17:56:18;;;;;;;2.20;0.97;;;;;;;16.92;51.72;97262.31;8418513;28;20249;-79
2022/09/16 18:00:20;;;;;;;2.53;1.10;;;;;;;16.95;51.71;97265.53;8418454;28;20231;-81
2022/09/16 18:04:24;;;;;;;2.63;1.07;;;;;;;16.82;51.57;97262.25;8406600;28;20233;-79
2022/09/16 18:08:28;;;;;;;2.73;1.60;;;;;;;16.88;51.46;97266.97;8417654;28;20252;-73
2022/09/16 18:12:30;;;;;;;3.20;1.20;;;;;;;16.86;51.72;97262.81;8417807;28;20242;-74
2022/09/16 18:16:33;;;;;;;3.47;1.40;;;;;;;16.64;52.69;97261.06;8417818;28;20329;-74
2022/09/16 18:20:37;;;;;;;2.70;1.27;;;;;;;16.66;52.02;97262.63;8416857;28;20255;-73
2022/09/16 18:24:40;;;;;;;2.10;1.20;;;;;;;16.75;52.35;97263.66;8417569;28;20356;-74
2022/09/16 18:28:45;;;;;;;3.03;1.40;;;;;;;16.83;52.54;97263.06;8417307;28;20525;-78
2022/09/16 18:33:08;;;;;;;4.03;1.63;;;;;;;16.76;52.19;97263.53;8383401;28;20325;-78
2022/09/16 18:37:12;;;;;;;2.87;1.20;;;;;;;16.80;52.33;97261.50;8383756;28;20568;-78
2022/09/16 18:41:17;;;;;;;5.57;2.23;;;;;;;16.64;52.82;97267.16;8383304;28;20301;-76
2022/09/16 18:45:20;;;;;;;3.10;1.50;;;;;;;16.67;53.16;97266.06;8383607;28;20234;-76
2022/09/16 18:49:25;;;;;;;2.87;1.20;;;;;;;16.59;52.84;97271.91;8396826;28;20273;-76
2022/09/16 18:53:29;;;;;;;3.60;1.33;;;;;;;16.56;53.11;97270.38;8416626;28;20237;-78
2022/09/16 18:57:32;;;;;;;3.43;1.23;;;;;;;16.50;52.72;97259.56;8416548;28;20243;-78
2022/09/16 19:01:36;;;;;;;5.20;0.90;;;;;;;16.52;52.78;97263.72;8416402;28;20537;-78
2022/09/16 19:05:39;;;;;;;3.13;1.27;;;;;;;16.51;52.86;97267.28;8416224;28;20268;-78
2022/09/16 19:09:44;;;;;;;3.33;1.00;;;;;;;16.49;52.86;97263.16;8416238;28;20230;-78
2022/09/16 19:13:47;;;;;;;2.97;0.97;;;;;;;16.34;53.18;97266.00;8382147;28;20235;-77
2022/09/16 19:17:50;;;;;;;1.40;0.80;;;;;;;16.34;53.42;97273.03;8391402;28;20238;-78
2022/09/16 19:21:53;;;;;;;1.67;0.80;;;;;;;16.32;54.07;97272.31;8415518;28;20230;-79
2022/09/16 19:26:02;;;;;;;2.83;1.00;;;;;;;16.39;53.57;97276.09;8415790;28;20237;-79
2022/09/16 19:30:06;;;;;;;2.17;0.90;;;;;;;16.31;53.68;97278.47;8415396;28;20231;-79